Aquilla, Texas
Current Conditions -  °F | °C
As of 11:51 PM on Wednesday 28 Jan 2015 (Local Time) from KACT Reporting Station
Clear Clear  
Wind Chill: 16°   Ceiling: Unl
Heat Index: 16°   Visibility: 10mi
Dew Point:   Wind: 12mph
Humidity: 50%   Direction: 190°S
Pressure: 30.09"   Gusts: NA
Location:  31.85°N, 97.22°W
Report Text: KACT 290551Z 19010KT 10SM CLR 16/06 A3009 RMK AO2 SLP184 T01610056 10206 20139 402670039 53009
Loading
Personal Weather Stations






























Interactive Weather Map New forecast layout! Learn more

10-Day Weather Forecast

Advertisements
Track Severe Weather on mobile